sensor_id;sensor_type;location;lat;lon;timestamp;temperature;humidity
3408;DHT22;1717;50.240;8.406;2023-11-21T00:01:19;11.40;99.90
3408;DHT22;1717;50.240;8.406;2023-11-21T00:03:46;11.40;99.90
3408;DHT22;1717;50.240;8.406;2023-11-21T00:06:13;11.30;99.90
3408;DHT22;1717;50.240;8.406;2023-11-21T00:08:40;11.30;99.90
3408;DHT22;1717;50.240;8.406;2023-11-21T00:11:08;11.30;99.90
3408;DHT22;1717;50.240;8.406;2023-11-21T00:13:35;11.30;99.90
3408;DHT22;1717;50.240;8.406;2023-11-21T00:16:03;11.30;99.90
3408;DHT22;1717;50.240;8.406;2023-11-21T00:18:31;11.30;99.90
3408;DHT22;1717;50.240;8.406;2023-11-21T00:20:57;11.20;99.90
3408;DHT22;1717;50.240;8.406;2023-11-21T00:23:24;11.20;99.90
3408;DHT22;1717;50.240;8.406;2023-11-21T00:25:51;11.20;99.90
3408;DHT22;1717;50.240;8.406;2023-11-21T00:28:19;11.20;99.90
3408;DHT22;1717;50.240;8.406;2023-11-21T00:30:46;11.10;99.90
3408;DHT22;1717;50.240;8.406;2023-11-21T00:33:13;11.00;99.90
3408;DHT22;1717;50.240;8.406;2023-11-21T00:35:40;11.00;99.90
3408;DHT22;1717;50.240;8.406;2023-11-21T00:38:07;11.00;99.90
3408;DHT22;1717;50.240;8.406;2023-11-21T00:40:35;11.10;99.90
3408;DHT22;1717;50.240;8.406;2023-11-21T00:43:01;11.10;99.90
3408;DHT22;1717;50.240;8.406;2023-11-21T00:45:30;11.10;99.90
3408;DHT22;1717;50.240;8.406;2023-11-21T00:47:57;11.20;99.90
3408;DHT22;1717;50.240;8.406;2023-11-21T00:50:23;11.20;99.90
3408;DHT22;1717;50.240;8.406;2023-11-21T00:52:50;11.20;99.90
3408;DHT22;1717;50.240;8.406;2023-11-21T00:55:18;11.20;99.90
3408;DHT22;1717;50.240;8.406;2023-11-21T00:57:44;11.20;99.90
3408;DHT22;1717;50.240;8.406;2023-11-21T01:00:12;11.20;99.90
3408;DHT22;1717;50.240;8.406;2023-11-21T01:02:44;11.20;99.90
3408;DHT22;1717;50.240;8.406;2023-11-21T01:05:11;11.10;99.90
3408;DHT22;1717;50.240;8.406;2023-11-21T01:07:37;11.30;99.90
3408;DHT22;1717;50.240;8.406;2023-11-21T01:10:05;11.30;99.90
3408;DHT22;1717;50.240;8.406;2023-11-21T01:12:33;11.20;99.90
3408;DHT22;1717;50.240;8.406;2023-11-21T01:15:00;11.20;99.90
3408;DHT22;1717;50.240;8.406;2023-11-21T01:17:27;11.30;99.90
3408;DHT22;1717;50.240;8.406;2023-11-21T01:19:55;11.20;99.90
3408;DHT22;1717;50.240;8.406;2023-11-21T01:22:23;11.20;99.90
3408;DHT22;1717;50.240;8.406;2023-11-21T01:24:51;11.20;99.90
3408;DHT22;1717;50.240;8.406;2023-11-21T01:27:18;11.20;99.90
3408;DHT22;1717;50.240;8.406;2023-11-21T01:29:45;11.20;99.90
3408;DHT22;1717;50.240;8.406;2023-11-21T01:32:12;11.20;99.90
3408;DHT22;1717;50.240;8.406;2023-11-21T01:34:39;11.20;99.90
3408;DHT22;1717;50.240;8.406;2023-11-21T01:37:07;11.20;99.90
3408;DHT22;1717;50.240;8.406;2023-11-21T01:39:37;11.40;99.90
3408;DHT22;1717;50.240;8.406;2023-11-21T01:42:05;11.20;99.90
3408;DHT22;1717;50.240;8.406;2023-11-21T01:44:33;11.20;99.90
3408;DHT22;1717;50.240;8.406;2023-11-21T01:47:00;11.20;99.90
3408;DHT22;1717;50.240;8.406;2023-11-21T01:49:30;11.20;99.90
3408;DHT22;1717;50.240;8.406;2023-11-21T01:51:57;11.10;99.90
3408;DHT22;1717;50.240;8.406;2023-11-21T01:54:26;11.10;99.90
3408;DHT22;1717;50.240;8.406;2023-11-21T01:56:57;11.10;99.90
3408;DHT22;1717;50.240;8.406;2023-11-21T01:59:29;11.00;99.90
3408;DHT22;1717;50.240;8.406;2023-11-21T02:02:00;11.00;99.90
3408;DHT22;1717;50.240;8.406;2023-11-21T02:04:26;10.90;99.90
3408;DHT22;1717;50.240;8.406;2023-11-21T02:06:53;10.90;99.90
3408;DHT22;1717;50.240;8.406;2023-11-21T02:09:26;10.90;99.90
3408;DHT22;1717;50.240;8.406;2023-11-21T02:11:54;10.90;99.90
3408;DHT22;1717;50.240;8.406;2023-11-21T02:14:21;10.90;99.90
3408;DHT22;1717;50.240;8.406;2023-11-21T02:16:48;10.90;99.90
3408;DHT22;1717;50.240;8.406;2023-11-21T02:19:18;10.90;99.90
3408;DHT22;1717;50.240;8.406;2023-11-21T02:21:46;10.90;99.90
3408;DHT22;1717;50.240;8.406;2023-11-21T02:24:15;11.00;99.90
3408;DHT22;1717;50.240;8.406;2023-11-21T02:26:43;10.90;99.90
3408;DHT22;1717;50.240;8.406;2023-11-21T02:29:09;10.80;99.90
3408;DHT22;1717;50.240;8.406;2023-11-21T02:31:39;10.80;99.90
3408;DHT22;1717;50.240;8.406;2023-11-21T02:34:13;10.80;99.90
3408;DHT22;1717;50.240;8.406;2023-11-21T02:36:40;10.70;99.90
3408;DHT22;1717;50.240;8.406;2023-11-21T02:39:08;10.70;99.90
3408;DHT22;1717;50.240;8.406;2023-11-21T02:41:36;10.70;99.90
3408;DHT22;1717;50.240;8.406;2023-11-21T02:44:04;10.70;99.90
3408;DHT22;1717;50.240;8.406;2023-11-21T02:46:31;10.70;99.90
3408;DHT22;1717;50.240;8.406;2023-11-21T02:48:59;10.70;99.90
3408;DHT22;1717;50.240;8.406;2023-11-21T02:51:26;10.70;99.90
3408;DHT22;1717;50.240;8.406;2023-11-21T02:53:53;10.70;99.90
3408;DHT22;1717;50.240;8.406;2023-11-21T02:56:20;10.70;99.90
3408;DHT22;1717;50.240;8.406;2023-11-21T02:58:48;10.60;99.90
3408;DHT22;1717;50.240;8.406;2023-11-21T03:01:15;10.60;99.90
3408;DHT22;1717;50.240;8.406;2023-11-21T03:03:42;10.60;99.90
3408;DHT22;1717;50.240;8.406;2023-11-21T03:06:09;10.60;99.90
3408;DHT22;1717;50.240;8.406;2023-11-21T03:08:36;10.60;99.90
3408;DHT22;1717;50.240;8.406;2023-11-21T03:11:03;10.60;99.90
3408;DHT22;1717;50.240;8.406;2023-11-21T03:13:30;10.60;99.90
3408;DHT22;1717;50.240;8.406;2023-11-21T03:15:58;10.60;99.90
3408;DHT22;1717;50.240;8.406;2023-11-21T03:18:25;10.60;99.90
3408;DHT22;1717;50.240;8.406;2023-11-21T03:20:53;10.70;99.90
3408;DHT22;1717;50.240;8.406;2023-11-21T03:23:20;10.70;99.90
3408;DHT22;1717;50.240;8.406;2023-11-21T03:25:47;10.70;99.90
3408;DHT22;1717;50.240;8.406;2023-11-21T03:28:14;10.70;99.90
3408;DHT22;1717;50.240;8.406;2023-11-21T03:30:41;10.70;99.90
3408;DHT22;1717;50.240;8.406;2023-11-21T03:33:09;10.70;99.90
3408;DHT22;1717;50.240;8.406;2023-11-21T03:35:36;10.70;99.90
3408;DHT22;1717;50.240;8.406;2023-11-21T03:38:03;10.70;99.90
3408;DHT22;1717;50.240;8.406;2023-11-21T03:40:30;10.70;99.90
3408;DHT22;1717;50.240;8.406;2023-11-21T03:42:57;10.70;99.90
3408;DHT22;1717;50.240;8.406;2023-11-21T03:45:24;10.70;99.90
3408;DHT22;1717;50.240;8.406;2023-11-21T03:47:50;10.70;99.90
3408;DHT22;1717;50.240;8.406;2023-11-21T03:50:19;10.70;99.90
3408;DHT22;1717;50.240;8.406;2023-11-21T03:52:45;10.70;99.90
3408;DHT22;1717;50.240;8.406;2023-11-21T03:55:12;10.70;99.90
3408;DHT22;1717;50.240;8.406;2023-11-21T03:57:40;10.70;99.90
3408;DHT22;1717;50.240;8.406;2023-11-21T04:00:08;10.70;99.90
3408;DHT22;1717;50.240;8.406;2023-11-21T04:02:35;10.60;99.90
3408;DHT22;1717;50.240;8.406;2023-11-21T04:05:02;10.70;99.90
3408;DHT22;1717;50.240;8.406;2023-11-21T04:07:31;10.70;99.90
3408;DHT22;1717;50.240;8.406;2023-11-21T04:09:58;10.70;99.90
3408;DHT22;1717;50.240;8.406;2023-11-21T04:12:25;10.70;99.90
3408;DHT22;1717;50.240;8.406;2023-11-21T04:14:52;10.70;99.90
3408;DHT22;1717;50.240;8.406;2023-11-21T04:17:19;10.60;99.90
3408;DHT22;1717;50.240;8.406;2023-11-21T04:19:46;10.60;99.90
3408;DHT22;1717;50.240;8.406;2023-11-21T04:22:13;10.70;99.90
3408;DHT22;1717;50.240;8.406;2023-11-21T04:24:41;10.60;99.90
3408;DHT22;1717;50.240;8.406;2023-11-21T04:27:08;10.60;99.90
3408;DHT22;1717;50.240;8.406;2023-11-21T04:29:35;10.50;99.90
3408;DHT22;1717;50.240;8.406;2023-11-21T04:32:02;10.50;99.90
3408;DHT22;1717;50.240;8.406;2023-11-21T04:34:28;10.50;99.90
3408;DHT22;1717;50.240;8.406;2023-11-21T04:36:56;10.50;99.90
3408;DHT22;1717;50.240;8.406;2023-11-21T04:39:23;10.50;99.90
3408;DHT22;1717;50.240;8.406;2023-11-21T04:41:52;10.50;99.90
3408;DHT22;1717;50.240;8.406;2023-11-21T04:44:19;10.50;99.90
3408;DHT22;1717;50.240;8.406;2023-11-21T04:46:46;10.50;99.90
3408;DHT22;1717;50.240;8.406;2023-11-21T04:49:13;10.40;99.90
3408;DHT22;1717;50.240;8.406;2023-11-21T04:51:40;10.50;99.90
3408;DHT22;1717;50.240;8.406;2023-11-21T04:54:07;10.50;99.90
3408;DHT22;1717;50.240;8.406;2023-11-21T04:56:34;10.50;99.90
3408;DHT22;1717;50.240;8.406;2023-11-21T04:59:02;10.70;99.90
3408;DHT22;1717;50.240;8.406;2023-11-21T05:01:30;10.50;99.90
3408;DHT22;1717;50.240;8.406;2023-11-21T05:03:57;10.50;99.90
3408;DHT22;1717;50.240;8.406;2023-11-21T05:06:23;10.40;99.90
3408;DHT22;1717;50.240;8.406;2023-11-21T05:08:50;10.40;99.90
3408;DHT22;1717;50.240;8.406;2023-11-21T05:11:24;10.40;99.90
3408;DHT22;1717;50.240;8.406;2023-11-21T05:13:51;10.50;99.90
3408;DHT22;1717;50.240;8.406;2023-11-21T05:16:20;10.50;99.90
3408;DHT22;1717;50.240;8.406;2023-11-21T05:18:47;10.50;99.90
3408;DHT22;1717;50.240;8.406;2023-11-21T05:21:16;10.50;99.90
3408;DHT22;1717;50.240;8.406;2023-11-21T05:23:43;10.50;99.90
3408;DHT22;1717;50.240;8.406;2023-11-21T05:26:10;10.60;99.90
3408;DHT22;1717;50.240;8.406;2023-11-21T05:28:37;10.60;99.90
3408;DHT22;1717;50.240;8.406;2023-11-21T05:31:04;10.60;99.90
3408;DHT22;1717;50.240;8.406;2023-11-21T05:33:32;10.60;99.90
3408;DHT22;1717;50.240;8.406;2023-11-21T05:35:59;10.50;99.90
3408;DHT22;1717;50.240;8.406;2023-11-21T05:38:26;10.50;99.90
3408;DHT22;1717;50.240;8.406;2023-11-21T05:40:53;10.60;99.90
3408;DHT22;1717;50.240;8.406;2023-11-21T05:43:20;10.60;99.90
3408;DHT22;1717;50.240;8.406;2023-11-21T05:45:47;10.60;99.90
3408;DHT22;1717;50.240;8.406;2023-11-21T05:48:14;10.60;99.90
3408;DHT22;1717;50.240;8.406;2023-11-21T05:50:42;10.60;99.90
3408;DHT22;1717;50.240;8.406;2023-11-21T05:53:09;10.50;99.90
3408;DHT22;1717;50.240;8.406;2023-11-21T05:55:37;10.50;99.90
3408;DHT22;1717;50.240;8.406;2023-11-21T05:58:04;10.60;99.90
3408;DHT22;1717;50.240;8.406;2023-11-21T06:00:32;10.60;99.90
3408;DHT22;1717;50.240;8.406;2023-11-21T06:02:59;10.70;99.90
3408;DHT22;1717;50.240;8.406;2023-11-21T06:05:26;10.60;99.90
3408;DHT22;1717;50.240;8.406;2023-11-21T06:07:55;10.50;99.90
3408;DHT22;1717;50.240;8.406;2023-11-21T06:10:24;10.60;99.90
3408;DHT22;1717;50.240;8.406;2023-11-21T06:12:51;10.50;99.90
3408;DHT22;1717;50.240;8.406;2023-11-21T06:15:18;10.60;99.90
3408;DHT22;1717;50.240;8.406;2023-11-21T06:17:46;10.50;99.90
3408;DHT22;1717;50.240;8.406;2023-11-21T06:20:17;10.50;99.90
3408;DHT22;1717;50.240;8.406;2023-11-21T06:22:46;10.50;99.90
3408;DHT22;1717;50.240;8.406;2023-11-21T06:25:14;10.60;99.90
3408;DHT22;1717;50.240;8.406;2023-11-21T06:27:42;10.60;99.90
3408;DHT22;1717;50.240;8.406;2023-11-21T06:30:10;10.60;99.90
3408;DHT22;1717;50.240;8.406;2023-11-21T06:32:38;10.60;99.90
3408;DHT22;1717;50.240;8.406;2023-11-21T06:35:07;10.60;99.90
3408;DHT22;1717;50.240;8.406;2023-11-21T06:37:35;10.60;99.90
3408;DHT22;1717;50.240;8.406;2023-11-21T06:40:02;10.50;99.90
3408;DHT22;1717;50.240;8.406;2023-11-21T06:42:32;10.50;99.90
3408;DHT22;1717;50.240;8.406;2023-11-21T06:44:59;10.50;99.90
3408;DHT22;1717;50.240;8.406;2023-11-21T06:47:29;10.50;99.90
3408;DHT22;1717;50.240;8.406;2023-11-21T06:49:56;10.50;99.90
3408;DHT22;1717;50.240;8.406;2023-11-21T06:52:23;10.50;99.90
3408;DHT22;1717;50.240;8.406;2023-11-21T06:54:50;10.40;99.90
3408;DHT22;1717;50.240;8.406;2023-11-21T06:57:17;10.40;99.90
3408;DHT22;1717;50.240;8.406;2023-11-21T06:59:45;10.40;99.90
3408;DHT22;1717;50.240;8.406;2023-11-21T07:02:12;10.40;99.90
3408;DHT22;1717;50.240;8.406;2023-11-21T07:04:39;10.40;99.90
3408;DHT22;1717;50.240;8.406;2023-11-21T07:07:06;10.30;99.90
3408;DHT22;1717;50.240;8.406;2023-11-21T07:09:33;10.30;99.90
3408;DHT22;1717;50.240;8.406;2023-11-21T07:12:00;10.30;99.90
3408;DHT22;1717;50.240;8.406;2023-11-21T07:14:29;10.30;99.90
3408;DHT22;1717;50.240;8.406;2023-11-21T07:16:57;10.30;99.90
3408;DHT22;1717;50.240;8.406;2023-11-21T07:19:24;10.40;99.90
3408;DHT22;1717;50.240;8.406;2023-11-21T07:21:51;10.30;99.90
3408;DHT22;1717;50.240;8.406;2023-11-21T07:24:18;10.30;99.90
3408;DHT22;1717;50.240;8.406;2023-11-21T07:26:45;10.30;99.90
3408;DHT22;1717;50.240;8.406;2023-11-21T07:29:13;10.30;99.90
3408;DHT22;1717;50.240;8.406;2023-11-21T07:31:40;10.40;99.90
3408;DHT22;1717;50.240;8.406;2023-11-21T07:34:09;10.30;99.90
3408;DHT22;1717;50.240;8.406;2023-11-21T07:36:37;10.30;99.90
3408;DHT22;1717;50.240;8.406;2023-11-21T07:39:04;10.40;99.90
3408;DHT22;1717;50.240;8.406;2023-11-21T07:41:32;10.30;99.90
3408;DHT22;1717;50.240;8.406;2023-11-21T07:43:59;10.30;99.90
3408;DHT22;1717;50.240;8.406;2023-11-21T07:46:26;10.30;99.90
3408;DHT22;1717;50.240;8.406;2023-11-21T07:48:53;10.30;99.90
3408;DHT22;1717;50.240;8.406;2023-11-21T07:51:22;10.30;99.90
3408;DHT22;1717;50.240;8.406;2023-11-21T07:53:49;10.30;99.90
3408;DHT22;1717;50.240;8.406;2023-11-21T07:56:16;10.30;99.90
3408;DHT22;1717;50.240;8.406;2023-11-21T07:58:43;10.30;99.90
3408;DHT22;1717;50.240;8.406;2023-11-21T08:01:11;10.30;99.90
3408;DHT22;1717;50.240;8.406;2023-11-21T08:03:38;10.30;99.90
3408;DHT22;1717;50.240;8.406;2023-11-21T08:06:05;10.30;99.90
3408;DHT22;1717;50.240;8.406;2023-11-21T08:08:34;10.30;99.90
3408;DHT22;1717;50.240;8.406;2023-11-21T08:11:01;10.30;99.90
3408;DHT22;1717;50.240;8.406;2023-11-21T08:13:29;10.30;99.90
3408;DHT22;1717;50.240;8.406;2023-11-21T08:15:57;10.30;99.90
3408;DHT22;1717;50.240;8.406;2023-11-21T08:18:30;10.40;99.90
3408;DHT22;1717;50.240;8.406;2023-11-21T08:20:57;10.40;99.90
3408;DHT22;1717;50.240;8.406;2023-11-21T08:23:24;10.50;99.90
3408;DHT22;1717;50.240;8.406;2023-11-21T08:25:53;10.50;99.90
3408;DHT22;1717;50.240;8.406;2023-11-21T08:28:21;10.40;99.90
3408;DHT22;1717;50.240;8.406;2023-11-21T08:30:51;10.40;99.90
3408;DHT22;1717;50.240;8.406;2023-11-21T08:33:19;10.50;99.90
3408;DHT22;1717;50.240;8.406;2023-11-21T08:35:46;10.50;99.90
3408;DHT22;1717;50.240;8.406;2023-11-21T08:38:13;10.50;99.90
3408;DHT22;1717;50.240;8.406;2023-11-21T08:40:40;10.50;99.90
3408;DHT22;1717;50.240;8.406;2023-11-21T08:43:09;10.60;99.90
3408;DHT22;1717;50.240;8.406;2023-11-21T08:45:37;10.60;99.90
3408;DHT22;1717;50.240;8.406;2023-11-21T08:48:04;10.60;99.90
3408;DHT22;1717;50.240;8.406;2023-11-21T08:50:32;10.60;99.90
3408;DHT22;1717;50.240;8.406;2023-11-21T08:52:59;10.80;99.90
3408;DHT22;1717;50.240;8.406;2023-11-21T08:55:26;10.80;99.90
3408;DHT22;1717;50.240;8.406;2023-11-21T08:57:54;10.80;99.90
3408;DHT22;1717;50.240;8.406;2023-11-21T09:00:22;10.80;99.90
3408;DHT22;1717;50.240;8.406;2023-11-21T09:02:49;10.80;99.90
3408;DHT22;1717;50.240;8.406;2023-11-21T09:05:16;10.90;99.90
3408;DHT22;1717;50.240;8.406;2023-11-21T09:07:44;11.00;99.90
3408;DHT22;1717;50.240;8.406;2023-11-21T09:10:14;11.00;99.90
3408;DHT22;1717;50.240;8.406;2023-11-21T09:12:41;11.10;99.90
3408;DHT22;1717;50.240;8.406;2023-11-21T09:15:09;11.00;99.90
3408;DHT22;1717;50.240;8.406;2023-11-21T09:17:38;11.10;99.90
3408;DHT22;1717;50.240;8.406;2023-11-21T09:20:07;11.10;99.90
3408;DHT22;1717;50.240;8.406;2023-11-21T09:22:35;11.20;99.90
3408;DHT22;1717;50.240;8.406;2023-11-21T09:25:03;11.20;99.90
3408;DHT22;1717;50.240;8.406;2023-11-21T09:27:32;11.20;99.90
3408;DHT22;1717;50.240;8.406;2023-11-21T09:29:58;11.30;99.90
3408;DHT22;1717;50.240;8.406;2023-11-21T09:32:26;11.40;99.90
3408;DHT22;1717;50.240;8.406;2023-11-21T09:34:54;11.40;99.90
3408;DHT22;1717;50.240;8.406;2023-11-21T09:37:24;11.40;99.90
3408;DHT22;1717;50.240;8.406;2023-11-21T09:39:52;11.50;99.90
3408;DHT22;1717;50.240;8.406;2023-11-21T09:42:23;11.60;99.90
3408;DHT22;1717;50.240;8.406;2023-11-21T09:44:56;11.60;99.90
3408;DHT22;1717;50.240;8.406;2023-11-21T09:47:27;11.60;99.90
3408;DHT22;1717;50.240;8.406;2023-11-21T09:49:56;11.70;99.90
3408;DHT22;1717;50.240;8.406;2023-11-21T09:52:28;11.70;99.90
3408;DHT22;1717;50.240;8.406;2023-11-21T09:54:56;11.70;99.90
3408;DHT22;1717;50.240;8.406;2023-11-21T09:57:24;11.70;99.90
3408;DHT22;1717;50.240;8.406;2023-11-21T09:59:52;11.70;99.90
3408;DHT22;1717;50.240;8.406;2023-11-21T10:02:22;11.70;99.90
3408;DHT22;1717;50.240;8.406;2023-11-21T10:04:51;11.70;99.90
3408;DHT22;1717;50.240;8.406;2023-11-21T10:07:21;11.70;99.90
3408;DHT22;1717;50.240;8.406;2023-11-21T10:09:51;11.70;99.90
3408;DHT22;1717;50.240;8.406;2023-11-21T10:12:18;11.80;99.90
3408;DHT22;1717;50.240;8.406;2023-11-21T10:14:47;11.90;99.90
3408;DHT22;1717;50.240;8.406;2023-11-21T10:17:15;11.90;99.90
3408;DHT22;1717;50.240;8.406;2023-11-21T10:19:46;11.80;99.90
3408;DHT22;1717;50.240;8.406;2023-11-21T10:22:14;11.80;99.90
3408;DHT22;1717;50.240;8.406;2023-11-21T10:24:43;11.80;99.90
3408;DHT22;1717;50.240;8.406;2023-11-21T10:27:10;11.80;99.90
3408;DHT22;1717;50.240;8.406;2023-11-21T10:29:36;11.80;99.90
3408;DHT22;1717;50.240;8.406;2023-11-21T10:32:03;11.80;99.90
3408;DHT22;1717;50.240;8.406;2023-11-21T10:34:31;11.90;99.90
3408;DHT22;1717;50.240;8.406;2023-11-21T10:36:58;11.90;99.90
3408;DHT22;1717;50.240;8.406;2023-11-21T10:39:25;11.90;99.90
3408;DHT22;1717;50.240;8.406;2023-11-21T10:41:57;12.10;99.90
3408;DHT22;1717;50.240;8.406;2023-11-21T10:44:25;12.00;99.90
3408;DHT22;1717;50.240;8.406;2023-11-21T10:46:53;12.00;99.90
3408;DHT22;1717;50.240;8.406;2023-11-21T10:49:21;12.10;99.90
3408;DHT22;1717;50.240;8.406;2023-11-21T10:51:50;12.20;99.90
3408;DHT22;1717;50.240;8.406;2023-11-21T10:54:19;12.10;99.90
3408;DHT22;1717;50.240;8.406;2023-11-21T10:56:49;12.10;99.90
3408;DHT22;1717;50.240;8.406;2023-11-21T10:59:18;12.20;99.90
3408;DHT22;1717;50.240;8.406;2023-11-21T11:01:47;12.20;99.90
3408;DHT22;1717;50.240;8.406;2023-11-21T11:04:18;12.10;99.90
3408;DHT22;1717;50.240;8.406;2023-11-21T11:06:47;12.20;99.90
3408;DHT22;1717;50.240;8.406;2023-11-21T11:09:17;12.20;99.90
3408;DHT22;1717;50.240;8.406;2023-11-21T11:11:44;12.30;99.90
3408;DHT22;1717;50.240;8.406;2023-11-21T11:14:12;12.40;99.90
3408;DHT22;1717;50.240;8.406;2023-11-21T11:16:41;12.30;99.90
3408;DHT22;1717;50.240;8.406;2023-11-21T11:19:08;12.40;99.90
3408;DHT22;1717;50.240;8.406;2023-11-21T11:21:46;12.40;99.90
3408;DHT22;1717;50.240;8.406;2023-11-21T11:24:41;12.30;99.90
3408;DHT22;1717;50.240;8.406;2023-11-21T11:27:19;12.30;99.90
3408;DHT22;1717;50.240;8.406;2023-11-21T11:29:54;12.30;99.90
3408;DHT22;1717;50.240;8.406;2023-11-21T11:32:34;12.40;99.90
3408;DHT22;1717;50.240;8.406;2023-11-21T11:35:10;12.40;99.90
3408;DHT22;1717;50.240;8.406;2023-11-21T11:37:42;12.50;99.90
3408;DHT22;1717;50.240;8.406;2023-11-21T11:40:11;12.60;99.90
3408;DHT22;1717;50.240;8.406;2023-11-21T11:42:38;12.60;99.90
3408;DHT22;1717;50.240;8.406;2023-11-21T11:45:17;12.60;99.90
3408;DHT22;1717;50.240;8.406;2023-11-21T11:47:47;12.60;99.90
3408;DHT22;1717;50.240;8.406;2023-11-21T11:50:14;12.60;99.90
3408;DHT22;1717;50.240;8.406;2023-11-21T11:52:44;12.60;99.90
3408;DHT22;1717;50.240;8.406;2023-11-21T11:55:12;12.60;99.90
3408;DHT22;1717;50.240;8.406;2023-11-21T11:57:41;12.60;99.90
3408;DHT22;1717;50.240;8.406;2023-11-21T12:00:13;12.70;99.90
3408;DHT22;1717;50.240;8.406;2023-11-21T12:02:47;12.60;99.90
3408;DHT22;1717;50.240;8.406;2023-11-21T12:05:15;12.70;99.90
3408;DHT22;1717;50.240;8.406;2023-11-21T12:07:45;12.70;99.90
3408;DHT22;1717;50.240;8.406;2023-11-21T12:10:14;12.70;99.90
3408;DHT22;1717;50.240;8.406;2023-11-21T12:12:47;12.70;99.90
3408;DHT22;1717;50.240;8.406;2023-11-21T12:15:15;12.50;99.90
3408;DHT22;1717;50.240;8.406;2023-11-21T12:17:42;12.60;99.90
3408;DHT22;1717;50.240;8.406;2023-11-21T12:20:12;12.60;99.90
3408;DHT22;1717;50.240;8.406;2023-11-21T12:22:45;12.60;99.90
3408;DHT22;1717;50.240;8.406;2023-11-21T12:25:15;12.70;99.90
3408;DHT22;1717;50.240;8.406;2023-11-21T12:27:44;12.60;99.90
3408;DHT22;1717;50.240;8.406;2023-11-21T12:30:13;12.60;99.90
3408;DHT22;1717;50.240;8.406;2023-11-21T12:32:42;12.60;99.90
3408;DHT22;1717;50.240;8.406;2023-11-21T12:35:11;12.60;99.90
3408;DHT22;1717;50.240;8.406;2023-11-21T12:37:38;12.60;99.90
3408;DHT22;1717;50.240;8.406;2023-11-21T12:40:06;12.70;99.90
3408;DHT22;1717;50.240;8.406;2023-11-21T12:42:37;12.60;99.90
3408;DHT22;1717;50.240;8.406;2023-11-21T12:45:18;12.60;99.90
3408;DHT22;1717;50.240;8.406;2023-11-21T12:47:46;12.70;99.90
3408;DHT22;1717;50.240;8.406;2023-11-21T12:50:15;12.80;99.90
3408;DHT22;1717;50.240;8.406;2023-11-21T12:52:43;12.80;99.90
3408;DHT22;1717;50.240;8.406;2023-11-21T12:55:17;12.80;99.90
3408;DHT22;1717;50.240;8.406;2023-11-21T12:57:44;12.80;99.90
3408;DHT22;1717;50.240;8.406;2023-11-21T13:00:13;12.90;99.90
3408;DHT22;1717;50.240;8.406;2023-11-21T13:02:52;12.80;99.90
3408;DHT22;1717;50.240;8.406;2023-11-21T13:05:27;12.80;99.90
3408;DHT22;1717;50.240;8.406;2023-11-21T13:07:55;12.80;99.90
3408;DHT22;1717;50.240;8.406;2023-11-21T13:10:24;12.80;99.90
3408;DHT22;1717;50.240;8.406;2023-11-21T13:12:55;12.90;99.90
3408;DHT22;1717;50.240;8.406;2023-11-21T13:15:24;12.90;99.90
3408;DHT22;1717;50.240;8.406;2023-11-21T13:17:51;12.90;99.90
3408;DHT22;1717;50.240;8.406;2023-11-21T13:20:19;13.10;99.90
3408;DHT22;1717;50.240;8.406;2023-11-21T13:22:49;12.90;99.90
3408;DHT22;1717;50.240;8.406;2023-11-21T13:25:17;12.90;99.90
3408;DHT22;1717;50.240;8.406;2023-11-21T13:27:45;12.90;99.90
3408;DHT22;1717;50.240;8.406;2023-11-21T13:30:14;12.90;99.90
3408;DHT22;1717;50.240;8.406;2023-11-21T13:32:48;12.90;99.90
3408;DHT22;1717;50.240;8.406;2023-11-21T13:35:17;12.90;99.90
3408;DHT22;1717;50.240;8.406;2023-11-21T13:37:50;12.90;99.90
3408;DHT22;1717;50.240;8.406;2023-11-21T13:40:22;12.80;99.90
3408;DHT22;1717;50.240;8.406;2023-11-21T13:42:53;12.80;99.90
3408;DHT22;1717;50.240;8.406;2023-11-21T13:45:21;12.80;99.90
3408;DHT22;1717;50.240;8.406;2023-11-21T13:47:49;12.70;99.90
3408;DHT22;1717;50.240;8.406;2023-11-21T13:50:18;12.70;99.90
3408;DHT22;1717;50.240;8.406;2023-11-21T13:52:50;12.70;99.90
3408;DHT22;1717;50.240;8.406;2023-11-21T13:55:19;12.70;99.90
3408;DHT22;1717;50.240;8.406;2023-11-21T13:57:47;12.70;99.90
3408;DHT22;1717;50.240;8.406;2023-11-21T14:00:17;12.80;99.90
3408;DHT22;1717;50.240;8.406;2023-11-21T14:03:01;12.70;99.90
3408;DHT22;1717;50.240;8.406;2023-11-21T14:05:34;12.60;99.90
3408;DHT22;1717;50.240;8.406;2023-11-21T14:08:02;12.60;99.90
3408;DHT22;1717;50.240;8.406;2023-11-21T14:10:30;12.50;99.90
3408;DHT22;1717;50.240;8.406;2023-11-21T14:13:06;12.50;99.90
3408;DHT22;1717;50.240;8.406;2023-11-21T14:15:32;12.50;99.90
3408;DHT22;1717;50.240;8.406;2023-11-21T14:18:03;12.50;99.90
3408;DHT22;1717;50.240;8.406;2023-11-21T14:20:33;12.40;99.90
3408;DHT22;1717;50.240;8.406;2023-11-21T14:23:03;12.30;99.90
3408;DHT22;1717;50.240;8.406;2023-11-21T14:25:32;12.40;99.90
3408;DHT22;1717;50.240;8.406;2023-11-21T14:27:59;12.40;99.90
3408;DHT22;1717;50.240;8.406;2023-11-21T14:30:26;12.40;99.90
3408;DHT22;1717;50.240;8.406;2023-11-21T14:32:55;12.30;99.90
3408;DHT22;1717;50.240;8.406;2023-11-21T14:35:22;12.40;99.90
3408;DHT22;1717;50.240;8.406;2023-11-21T14:37:50;12.40;99.90
3408;DHT22;1717;50.240;8.406;2023-11-21T14:40:19;12.30;99.90
3408;DHT22;1717;50.240;8.406;2023-11-21T14:42:50;12.30;99.90
3408;DHT22;1717;50.240;8.406;2023-11-21T14:45:19;12.30;99.90
3408;DHT22;1717;50.240;8.406;2023-11-21T14:47:46;12.30;99.90
3408;DHT22;1717;50.240;8.406;2023-11-21T14:50:21;12.30;99.90
3408;DHT22;1717;50.240;8.406;2023-11-21T14:53:05;12.30;99.90
3408;DHT22;1717;50.240;8.406;2023-11-21T14:55:35;12.30;99.90
3408;DHT22;1717;50.240;8.406;2023-11-21T14:58:18;12.20;99.90
3408;DHT22;1717;50.240;8.406;2023-11-21T15:00:55;12.30;99.90
3408;DHT22;1717;50.240;8.406;2023-11-21T15:03:24;12.20;99.90
3408;DHT22;1717;50.240;8.406;2023-11-21T15:06:09;12.10;99.90
3408;DHT22;1717;50.240;8.406;2023-11-21T15:08:49;12.10;99.90
3408;DHT22;1717;50.240;8.406;2023-11-21T15:11:23;12.10;99.90
3408;DHT22;1717;50.240;8.406;2023-11-21T15:13:56;12.20;99.90
3408;DHT22;1717;50.240;8.406;2023-11-21T15:16:22;12.10;99.90
3408;DHT22;1717;50.240;8.406;2023-11-21T15:18:51;12.10;99.90
3408;DHT22;1717;50.240;8.406;2023-11-21T15:21:19;12.10;99.90
3408;DHT22;1717;50.240;8.406;2023-11-21T15:23:47;12.10;99.90
3408;DHT22;1717;50.240;8.406;2023-11-21T15:26:14;12.10;99.90
3408;DHT22;1717;50.240;8.406;2023-11-21T15:28:43;12.20;99.90
3408;DHT22;1717;50.240;8.406;2023-11-21T15:31:10;12.40;99.90
3408;DHT22;1717;50.240;8.406;2023-11-21T15:33:37;12.10;99.90
3408;DHT22;1717;50.240;8.406;2023-11-21T15:36:05;12.20;99.90
3408;DHT22;1717;50.240;8.406;2023-11-21T15:38:35;12.20;99.90
3408;DHT22;1717;50.240;8.406;2023-11-21T15:41:03;12.20;99.90
3408;DHT22;1717;50.240;8.406;2023-11-21T15:43:32;12.10;99.90
3408;DHT22;1717;50.240;8.406;2023-11-21T15:46:01;12.10;99.90
3408;DHT22;1717;50.240;8.406;2023-11-21T15:48:33;12.10;99.90
3408;DHT22;1717;50.240;8.406;2023-11-21T15:51:00;12.10;99.90
3408;DHT22;1717;50.240;8.406;2023-11-21T15:53:28;12.10;99.90
3408;DHT22;1717;50.240;8.406;2023-11-21T15:55:55;12.20;99.90
3408;DHT22;1717;50.240;8.406;2023-11-21T15:58:22;12.00;99.90
3408;DHT22;1717;50.240;8.406;2023-11-21T16:00:50;12.00;99.90
3408;DHT22;1717;50.240;8.406;2023-11-21T16:03:19;12.00;99.90
3408;DHT22;1717;50.240;8.406;2023-11-21T16:05:47;12.00;99.90
3408;DHT22;1717;50.240;8.406;2023-11-21T16:08:15;12.00;99.90
3408;DHT22;1717;50.240;8.406;2023-11-21T16:10:43;12.00;99.90